sensor_id;sensor_type;location;lat;lon;timestamp;pressure;altitude;pressure_sealevel;temperature;humidity
61359;BME280;47228;46.762;23.598;2023-02-28T00:01:36;98068.09;;;-0.44;83.12
61359;BME280;47228;46.762;23.598;2023-02-28T00:04:04;98070.30;;;-0.45;83.06
61359;BME280;47228;46.762;23.598;2023-02-28T00:06:32;98070.78;;;-0.49;82.87
61359;BME280;47228;46.762;23.598;2023-02-28T00:09:00;98070.48;;;-0.55;82.79
61359;BME280;47228;46.762;23.598;2023-02-28T00:11:28;98067.88;;;-0.59;82.68
61359;BME280;47228;46.762;23.598;2023-02-28T00:13:57;98073.11;;;-0.65;82.95
61359;BME280;47228;46.762;23.598;2023-02-28T00:16:26;98070.02;;;-0.65;83.27
61359;BME280;47228;46.762;23.598;2023-02-28T00:18:54;98070.81;;;-0.62;83.81
61359;BME280;47228;46.762;23.598;2023-02-28T00:21:22;98070.21;;;-0.58;83.72
61359;BME280;47228;46.762;23.598;2023-02-28T00:23:50;98074.52;;;-0.55;83.42
61359;BME280;47228;46.762;23.598;2023-02-28T00:26:18;98076.70;;;-0.54;83.23
61359;BME280;47228;46.762;23.598;2023-02-28T00:28:48;98078.95;;;-0.54;83.34
61359;BME280;47228;46.762;23.598;2023-02-28T00:31:16;98074.68;;;-0.53;83.35
61359;BME280;47228;46.762;23.598;2023-02-28T00:33:44;98077.05;;;-0.52;83.20
61359;BME280;47228;46.762;23.598;2023-02-28T00:36:12;98080.07;;;-0.51;83.21
61359;BME280;47228;46.762;23.598;2023-02-28T00:38:40;98087.05;;;-0.51;83.15
61359;BME280;47228;46.762;23.598;2023-02-28T00:41:09;98088.88;;;-0.49;83.41
61359;BME280;47228;46.762;23.598;2023-02-28T00:43:39;98091.35;;;-0.50;83.21
61359;BME280;47228;46.762;23.598;2023-02-28T00:46:07;98089.49;;;-0.51;83.39
61359;BME280;47228;46.762;23.598;2023-02-28T00:48:36;98084.48;;;-0.52;83.37
61359;BME280;47228;46.762;23.598;2023-02-28T00:51:04;98086.08;;;-0.52;83.51
61359;BME280;47228;46.762;23.598;2023-02-28T00:53:32;98079.18;;;-0.50;83.62
61359;BME280;47228;46.762;23.598;2023-02-28T00:56:00;98080.25;;;-0.48;83.61
61359;BME280;47228;46.762;23.598;2023-02-28T00:58:28;98083.14;;;-0.47;83.56
61359;BME280;47228;46.762;23.598;2023-02-28T01:00:56;98084.69;;;-0.49;83.14
61359;BME280;47228;46.762;23.598;2023-02-28T01:03:24;98085.65;;;-0.53;83.29
61359;BME280;47228;46.762;23.598;2023-02-28T01:05:52;98089.73;;;-0.54;83.43
61359;BME280;47228;46.762;23.598;2023-02-28T01:08:21;98085.08;;;-0.55;83.48
61359;BME280;47228;46.762;23.598;2023-02-28T01:10:49;98081.66;;;-0.55;83.18
61359;BME280;47228;46.762;23.598;2023-02-28T01:13:18;98081.15;;;-0.56;83.37
61359;BME280;47228;46.762;23.598;2023-02-28T01:15:52;98081.77;;;-0.55;83.33
61359;BME280;47228;46.762;23.598;2023-02-28T01:18:21;98076.91;;;-0.55;83.46
61359;BME280;47228;46.762;23.598;2023-02-28T01:20:49;98078.32;;;-0.55;83.33
61359;BME280;47228;46.762;23.598;2023-02-28T01:23:20;98075.13;;;-0.57;83.55
61359;BME280;47228;46.762;23.598;2023-02-28T01:25:51;98081.41;;;-0.59;83.35
61359;BME280;47228;46.762;23.598;2023-02-28T01:28:19;98081.94;;;-0.61;83.23
61359;BME280;47228;46.762;23.598;2023-02-28T01:30:49;98081.16;;;-0.65;83.31
61359;BME280;47228;46.762;23.598;2023-02-28T01:33:17;98081.94;;;-0.67;83.55
61359;BME280;47228;46.762;23.598;2023-02-28T01:35:45;98082.77;;;-0.66;83.61
61359;BME280;47228;46.762;23.598;2023-02-28T01:38:14;98086.00;;;-0.65;83.51
61359;BME280;47228;46.762;23.598;2023-02-28T01:40:49;98087.75;;;-0.63;83.87
61359;BME280;47228;46.762;23.598;2023-02-28T01:43:22;98089.08;;;-0.61;83.86
61359;BME280;47228;46.762;23.598;2023-02-28T01:45:56;98085.05;;;-0.61;83.95
61359;BME280;47228;46.762;23.598;2023-02-28T01:48:33;98092.13;;;-0.60;83.95
61359;BME280;47228;46.762;23.598;2023-02-28T01:51:07;98093.46;;;-0.59;83.93
61359;BME280;47228;46.762;23.598;2023-02-28T01:53:41;98093.77;;;-0.59;84.11
61359;BME280;47228;46.762;23.598;2023-02-28T01:56:12;98088.63;;;-0.58;84.13
61359;BME280;47228;46.762;23.598;2023-02-28T01:58:41;98089.08;;;-0.57;84.05
61359;BME280;47228;46.762;23.598;2023-02-28T02:01:09;98089.79;;;-0.57;83.81
61359;BME280;47228;46.762;23.598;2023-02-28T02:03:37;98087.29;;;-0.61;83.69
61359;BME280;47228;46.762;23.598;2023-02-28T02:06:05;98089.08;;;-0.64;83.75
61359;BME280;47228;46.762;23.598;2023-02-28T02:08:33;98091.41;;;-0.68;84.02
61359;BME280;47228;46.762;23.598;2023-02-28T02:11:02;98094.65;;;-0.69;84.14
61359;BME280;47228;46.762;23.598;2023-02-28T02:13:56;98090.64;;;-0.69;84.13
61359;BME280;47228;46.762;23.598;2023-02-28T02:25:25;98106.54;;;-0.70;84.66
61359;BME280;47228;46.762;23.598;2023-02-28T02:30:53;98101.70;;;-0.70;84.13
61359;BME280;47228;46.762;23.598;2023-02-28T02:38:58;98110.19;;;-0.70;84.39
61359;BME280;47228;46.762;23.598;2023-02-28T02:41:54;98115.61;;;-0.68;84.53
61359;BME280;47228;46.762;23.598;2023-02-28T02:44:34;98114.48;;;-0.67;84.39
61359;BME280;47228;46.762;23.598;2023-02-28T02:47:13;98115.04;;;-0.67;84.29
61359;BME280;47228;46.762;23.598;2023-02-28T02:49:48;98114.33;;;-0.67;84.28
61359;BME280;47228;46.762;23.598;2023-02-28T02:52:22;98109.46;;;-0.67;84.14
61359;BME280;47228;46.762;23.598;2023-02-28T02:54:54;98107.85;;;-0.67;84.25
61359;BME280;47228;46.762;23.598;2023-02-28T02:57:29;98111.84;;;-0.64;84.44
61359;BME280;47228;46.762;23.598;2023-02-28T03:00:03;98115.67;;;-0.61;84.47
61359;BME280;47228;46.762;23.598;2023-02-28T03:02:33;98113.34;;;-0.60;84.24
61359;BME280;47228;46.762;23.598;2023-02-28T03:05:09;98113.50;;;-0.60;84.40
61359;BME280;47228;46.762;23.598;2023-02-28T03:07:40;98116.23;;;-0.62;84.11
61359;BME280;47228;46.762;23.598;2023-02-28T03:10:32;98112.42;;;-0.64;84.34
61359;BME280;47228;46.762;23.598;2023-02-28T03:23:55;98107.67;;;-0.61;84.65
61359;BME280;47228;46.762;23.598;2023-02-28T03:26:26;98107.77;;;-0.60;84.75
61359;BME280;47228;46.762;23.598;2023-02-28T03:29:21;98108.83;;;-0.60;84.53
61359;BME280;47228;46.762;23.598;2023-02-28T03:32:03;98109.98;;;-0.62;84.39
61359;BME280;47228;46.762;23.598;2023-02-28T03:34:37;98112.80;;;-0.62;84.40
61359;BME280;47228;46.762;23.598;2023-02-28T03:37:19;98111.30;;;-0.63;84.33
61359;BME280;47228;46.762;23.598;2023-02-28T03:40:30;98111.71;;;-0.62;84.65
61359;BME280;47228;46.762;23.598;2023-02-28T03:43:06;98121.79;;;-0.62;84.43
61359;BME280;47228;46.762;23.598;2023-02-28T03:45:37;98123.95;;;-0.66;84.53
61359;BME280;47228;46.762;23.598;2023-02-28T03:48:17;98120.95;;;-0.67;84.62
61359;BME280;47228;46.762;23.598;2023-02-28T03:50:50;98129.17;;;-0.65;84.86
61359;BME280;47228;46.762;23.598;2023-02-28T03:56:06;98128.40;;;-0.59;84.70
61359;BME280;47228;46.762;23.598;2023-02-28T03:58:55;98128.33;;;-0.58;84.72
61359;BME280;47228;46.762;23.598;2023-02-28T04:01:30;98122.48;;;-0.57;84.56
61359;BME280;47228;46.762;23.598;2023-02-28T04:04:00;98116.55;;;-0.57;84.61
61359;BME280;47228;46.762;23.598;2023-02-28T04:06:30;98120.09;;;-0.55;84.64
61359;BME280;47228;46.762;23.598;2023-02-28T04:08:59;98121.71;;;-0.54;84.59
61359;BME280;47228;46.762;23.598;2023-02-28T04:11:36;98123.05;;;-0.50;84.57
61359;BME280;47228;46.762;23.598;2023-02-28T04:14:06;98115.00;;;-0.50;84.59
61359;BME280;47228;46.762;23.598;2023-02-28T04:16:37;98113.19;;;-0.49;84.86
61359;BME280;47228;46.762;23.598;2023-02-28T04:19:07;98112.88;;;-0.47;84.77
61359;BME280;47228;46.762;23.598;2023-02-28T04:21:39;98111.42;;;-0.48;84.63
61359;BME280;47228;46.762;23.598;2023-02-28T04:24:09;98111.42;;;-0.51;84.65
61359;BME280;47228;46.762;23.598;2023-02-28T04:26:44;98110.12;;;-0.52;84.73
61359;BME280;47228;46.762;23.598;2023-02-28T04:29:18;98111.38;;;-0.50;84.93
61359;BME280;47228;46.762;23.598;2023-02-28T04:31:47;98108.05;;;-0.48;85.01
61359;BME280;47228;46.762;23.598;2023-02-28T04:34:16;98108.30;;;-0.46;84.86
61359;BME280;47228;46.762;23.598;2023-02-28T04:36:44;98110.11;;;-0.47;84.68
61359;BME280;47228;46.762;23.598;2023-02-28T04:39:13;98107.23;;;-0.48;84.50
61359;BME280;47228;46.762;23.598;2023-02-28T04:41:42;98107.41;;;-0.48;84.81
61359;BME280;47228;46.762;23.598;2023-02-28T04:44:10;98109.66;;;-0.46;84.97
61359;BME280;47228;46.762;23.598;2023-02-28T04:46:38;98109.04;;;-0.45;84.90
61359;BME280;47228;46.762;23.598;2023-02-28T04:49:07;98111.85;;;-0.40;85.08
61359;BME280;47228;46.762;23.598;2023-02-28T04:51:35;98106.14;;;-0.38;85.26
61359;BME280;47228;46.762;23.598;2023-02-28T04:54:03;98104.73;;;-0.36;85.26
61359;BME280;47228;46.762;23.598;2023-02-28T04:56:31;98105.13;;;-0.34;85.29
61359;BME280;47228;46.762;23.598;2023-02-28T04:59:00;98105.82;;;-0.31;85.29
61359;BME280;47228;46.762;23.598;2023-02-28T05:01:32;98106.58;;;-0.30;85.22
61359;BME280;47228;46.762;23.598;2023-02-28T05:04:02;98106.64;;;-0.28;85.26
61359;BME280;47228;46.762;23.598;2023-02-28T05:06:32;98103.60;;;-0.27;85.24
61359;BME280;47228;46.762;23.598;2023-02-28T05:09:00;98105.41;;;-0.28;85.15
61359;BME280;47228;46.762;23.598;2023-02-28T05:11:33;98101.81;;;-0.29;85.43
61359;BME280;47228;46.762;23.598;2023-02-28T05:14:05;98101.27;;;-0.29;85.63
61359;BME280;47228;46.762;23.598;2023-02-28T05:16:33;98101.77;;;-0.28;85.51
61359;BME280;47228;46.762;23.598;2023-02-28T05:19:01;98105.95;;;-0.29;85.51
61359;BME280;47228;46.762;23.598;2023-02-28T05:21:31;98112.04;;;-0.29;85.51
61359;BME280;47228;46.762;23.598;2023-02-28T05:24:02;98114.23;;;-0.30;85.32
61359;BME280;47228;46.762;23.598;2023-02-28T05:26:33;98113.38;;;-0.32;85.58
61359;BME280;47228;46.762;23.598;2023-02-28T05:29:02;98117.17;;;-0.32;85.85
61359;BME280;47228;46.762;23.598;2023-02-28T05:31:30;98118.00;;;-0.31;85.82
61359;BME280;47228;46.762;23.598;2023-02-28T05:33:58;98118.70;;;-0.32;85.94
61359;BME280;47228;46.762;23.598;2023-02-28T05:36:27;98122.48;;;-0.31;86.14
61359;BME280;47228;46.762;23.598;2023-02-28T05:38:55;98124.88;;;-0.28;86.17
61359;BME280;47228;46.762;23.598;2023-02-28T05:41:23;98128.94;;;-0.24;86.35
61359;BME280;47228;46.762;23.598;2023-02-28T05:43:51;98133.92;;;-0.21;86.06
61359;BME280;47228;46.762;23.598;2023-02-28T05:46:19;98137.06;;;-0.18;86.29
61359;BME280;47228;46.762;23.598;2023-02-28T05:48:48;98141.86;;;-0.15;86.34
61359;BME280;47228;46.762;23.598;2023-02-28T05:51:17;98137.12;;;-0.15;86.17
61359;BME280;47228;46.762;23.598;2023-02-28T05:53:45;98140.61;;;-0.15;86.10
61359;BME280;47228;46.762;23.598;2023-02-28T05:56:13;98143.03;;;-0.12;85.91
61359;BME280;47228;46.762;23.598;2023-02-28T05:58:41;98147.66;;;-0.11;85.93
61359;BME280;47228;46.762;23.598;2023-02-28T06:01:36;98153.55;;;-0.10;85.84
61359;BME280;47228;46.762;23.598;2023-02-28T06:04:07;98156.01;;;-0.11;85.83
61359;BME280;47228;46.762;23.598;2023-02-28T06:06:47;98160.89;;;-0.09;85.86
61359;BME280;47228;46.762;23.598;2023-02-28T06:09:15;98166.69;;;-0.07;85.77
61359;BME280;47228;46.762;23.598;2023-02-28T06:11:43;98167.15;;;-0.04;85.77
61359;BME280;47228;46.762;23.598;2023-02-28T06:14:17;98165.84;;;0.00;85.49
61359;BME280;47228;46.762;23.598;2023-02-28T06:16:45;98166.71;;;0.02;85.30
61359;BME280;47228;46.762;23.598;2023-02-28T06:19:14;98167.70;;;0.03;85.02
61359;BME280;47228;46.762;23.598;2023-02-28T06:21:43;98169.64;;;0.03;84.98
61359;BME280;47228;46.762;23.598;2023-02-28T06:24:11;98168.57;;;0.05;85.17
61359;BME280;47228;46.762;23.598;2023-02-28T06:26:39;98167.50;;;0.05;85.29
61359;BME280;47228;46.762;23.598;2023-02-28T06:29:07;98170.67;;;0.07;85.10
61359;BME280;47228;46.762;23.598;2023-02-28T06:31:35;98175.69;;;0.08;84.84
61359;BME280;47228;46.762;23.598;2023-02-28T06:34:04;98178.21;;;0.07;84.83
61359;BME280;47228;46.762;23.598;2023-02-28T06:36:32;98180.64;;;0.07;84.83
61359;BME280;47228;46.762;23.598;2023-02-28T06:39:00;98182.20;;;0.09;84.96
61359;BME280;47228;46.762;23.598;2023-02-28T06:41:28;98185.34;;;0.14;85.20
61359;BME280;47228;46.762;23.598;2023-02-28T06:44:08;98184.95;;;0.19;85.12
61359;BME280;47228;46.762;23.598;2023-02-28T06:46:40;98186.93;;;0.23;85.26
61359;BME280;47228;46.762;23.598;2023-02-28T06:49:09;98188.22;;;0.27;85.19
61359;BME280;47228;46.762;23.598;2023-02-28T06:51:39;98191.34;;;0.29;85.06
61359;BME280;47228;46.762;23.598;2023-02-28T06:54:09;98188.02;;;0.32;85.31
61359;BME280;47228;46.762;23.598;2023-02-28T06:56:37;98189.55;;;0.36;85.08
61359;BME280;47228;46.762;23.598;2023-02-28T06:59:05;98188.92;;;0.40;84.77
61359;BME280;47228;46.762;23.598;2023-02-28T07:01:33;98184.05;;;0.41;84.46
61359;BME280;47228;46.762;23.598;2023-02-28T07:04:01;98189.80;;;0.43;84.56
61359;BME280;47228;46.762;23.598;2023-02-28T07:06:29;98190.55;;;0.46;84.37
61359;BME280;47228;46.762;23.598;2023-02-28T07:08:58;98191.44;;;0.44;84.27
61359;BME280;47228;46.762;23.598;2023-02-28T07:11:27;98190.08;;;0.44;84.58
61359;BME280;47228;46.762;23.598;2023-02-28T07:13:57;98185.17;;;0.49;84.84
61359;BME280;47228;46.762;23.598;2023-02-28T07:16:25;98179.88;;;0.57;84.86
61359;BME280;47228;46.762;23.598;2023-02-28T07:18:53;98179.38;;;0.65;84.84
61359;BME280;47228;46.762;23.598;2023-02-28T07:21:22;98178.58;;;0.73;84.41
61359;BME280;47228;46.762;23.598;2023-02-28T07:23:50;98179.23;;;0.79;84.14
61359;BME280;47228;46.762;23.598;2023-02-28T07:26:20;98178.90;;;0.82;84.18
61359;BME280;47228;46.762;23.598;2023-02-28T07:28:48;98172.83;;;0.84;84.21
61359;BME280;47228;46.762;23.598;2023-02-28T07:31:17;98175.79;;;0.87;84.24
61359;BME280;47228;46.762;23.598;2023-02-28T07:33:46;98177.51;;;0.89;84.04
61359;BME280;47228;46.762;23.598;2023-02-28T07:36:15;98176.17;;;0.90;83.74
61359;BME280;47228;46.762;23.598;2023-02-28T07:38:46;98176.71;;;0.95;83.93
61359;BME280;47228;46.762;23.598;2023-02-28T07:41:20;98178.33;;;0.99;83.84
61359;BME280;47228;46.762;23.598;2023-02-28T07:43:49;98183.23;;;1.01;83.77
61359;BME280;47228;46.762;23.598;2023-02-28T07:46:17;98185.09;;;1.06;84.17
61359;BME280;47228;46.762;23.598;2023-02-28T07:48:45;98182.98;;;1.15;84.41
61359;BME280;47228;46.762;23.598;2023-02-28T07:51:13;98184.84;;;1.23;83.74
61359;BME280;47228;46.762;23.598;2023-02-28T07:53:41;98186.86;;;1.24;82.98
61359;BME280;47228;46.762;23.598;2023-02-28T07:56:08;98188.08;;;1.24;82.87
61359;BME280;47228;46.762;23.598;2023-02-28T07:58:38;98186.48;;;1.26;83.07
61359;BME280;47228;46.762;23.598;2023-02-28T08:01:08;98184.98;;;1.30;82.80
61359;BME280;47228;46.762;23.598;2023-02-28T08:03:37;98189.63;;;1.33;82.96
61359;BME280;47228;46.762;23.598;2023-02-28T08:06:07;98190.30;;;1.40;83.34
61359;BME280;47228;46.762;23.598;2023-02-28T08:08:36;98193.73;;;1.47;83.17
61359;BME280;47228;46.762;23.598;2023-02-28T08:11:04;98188.45;;;1.56;83.13
61359;BME280;47228;46.762;23.598;2023-02-28T08:13:32;98189.20;;;1.67;82.96
61359;BME280;47228;46.762;23.598;2023-02-28T08:16:01;98192.44;;;1.76;82.81
61359;BME280;47228;46.762;23.598;2023-02-28T08:18:29;98191.30;;;1.84;82.37
61359;BME280;47228;46.762;23.598;2023-02-28T08:20:57;98192.54;;;1.90;82.21
61359;BME280;47228;46.762;23.598;2023-02-28T08:23:26;98193.18;;;1.97;82.07
61359;BME280;47228;46.762;23.598;2023-02-28T08:25:55;98196.61;;;2.02;81.88
61359;BME280;47228;46.762;23.598;2023-02-28T08:28:23;98198.78;;;2.08;81.73
61359;BME280;47228;46.762;23.598;2023-02-28T08:30:54;98200.99;;;2.13;81.39
61359;BME280;47228;46.762;23.598;2023-02-28T08:33:24;98199.39;;;2.15;81.02
61359;BME280;47228;46.762;23.598;2023-02-28T08:35:53;98198.91;;;2.16;80.77
61359;BME280;47228;46.762;23.598;2023-02-28T08:38:23;98201.08;;;2.18;80.88
61359;BME280;47228;46.762;23.598;2023-02-28T08:40:58;98202.49;;;2.20;80.76
61359;BME280;47228;46.762;23.598;2023-02-28T08:43:27;98203.04;;;2.22;80.69
61359;BME280;47228;46.762;23.598;2023-02-28T08:45:56;98202.95;;;2.23;80.54
61359;BME280;47228;46.762;23.598;2023-02-28T08:48:26;98206.92;;;2.26;80.59
61359;BME280;47228;46.762;23.598;2023-02-28T08:51:06;98208.21;;;2.29;80.40
61359;BME280;47228;46.762;23.598;2023-02-28T08:53:36;98204.65;;;2.30;80.07
61359;BME280;47228;46.762;23.598;2023-02-28T08:56:07;98205.84;;;2.32;80.33
61359;BME280;47228;46.762;23.598;2023-02-28T08:58:36;98205.80;;;2.39;80.95
61359;BME280;47228;46.762;23.598;2023-02-28T09:01:12;98210.83;;;2.46;80.73
61359;BME280;47228;46.762;23.598;2023-02-28T09:03:41;98213.38;;;2.51;80.31
61359;BME280;47228;46.762;23.598;2023-02-28T09:06:10;98212.82;;;2.55;80.33
61359;BME280;47228;46.762;23.598;2023-02-28T09:08:39;98216.45;;;2.64;80.42
61359;BME280;47228;46.762;23.598;2023-02-28T09:11:08;98211.89;;;2.75;80.47
61359;BME280;47228;46.762;23.598;2023-02-28T09:13:37;98209.44;;;2.81;80.25
61359;BME280;47228;46.762;23.598;2023-02-28T09:16:07;98208.91;;;2.87;80.17
61359;BME280;47228;46.762;23.598;2023-02-28T09:18:37;98211.92;;;2.97;80.19
61359;BME280;47228;46.762;23.598;2023-02-28T09:21:08;98214.55;;;3.09;80.04
61359;BME280;47228;46.762;23.598;2023-02-28T09:23:36;98216.45;;;3.18;79.50
61359;BME280;47228;46.762;23.598;2023-02-28T09:26:07;98214.92;;;3.21;78.95
61359;BME280;47228;46.762;23.598;2023-02-28T09:28:35;98215.80;;;3.25;79.02
61359;BME280;47228;46.762;23.598;2023-02-28T09:31:03;98215.41;;;3.32;78.72
61359;BME280;47228;46.762;23.598;2023-02-28T09:33:32;98218.31;;;3.35;77.61
61359;BME280;47228;46.762;23.598;2023-02-28T09:36:02;98221.38;;;3.33;77.49
61359;BME280;47228;46.762;23.598;2023-02-28T09:38:31;98221.42;;;3.33;77.37
61359;BME280;47228;46.762;23.598;2023-02-28T09:41:02;98221.45;;;3.35;77.76
61359;BME280;47228;46.762;23.598;2023-02-28T09:43:40;98221.31;;;3.42;77.83
61359;BME280;47228;46.762;23.598;2023-02-28T09:48:47;98214.40;;;3.59;77.63
61359;BME280;47228;46.762;23.598;2023-02-28T09:54:13;98217.83;;;3.78;77.72
61359;BME280;47228;46.762;23.598;2023-02-28T10:04:57;98213.77;;;4.02;76.73
61359;BME280;47228;46.762;23.598;2023-02-28T10:10:23;98208.05;;;4.05;76.28
61359;BME280;47228;46.762;23.598;2023-02-28T10:12:56;98209.84;;;4.09;76.99
61359;BME280;47228;46.762;23.598;2023-02-28T10:15:29;98208.91;;;4.17;77.50
61359;BME280;47228;46.762;23.598;2023-02-28T10:18:02;98210.00;;;4.26;77.00
61359;BME280;47228;46.762;23.598;2023-02-28T10:20:41;98211.18;;;4.29;75.36
61359;BME280;47228;46.762;23.598;2023-02-28T10:25:55;98201.48;;;4.31;75.93
61359;BME280;47228;46.762;23.598;2023-02-28T10:28:25;98200.29;;;4.35;76.06
61359;BME280;47228;46.762;23.598;2023-02-28T10:30:54;98204.80;;;4.39;76.32
61359;BME280;47228;46.762;23.598;2023-02-28T10:33:31;98207.21;;;4.39;75.50
61359;BME280;47228;46.762;23.598;2023-02-28T10:36:00;98200.65;;;4.33;75.47
61359;BME280;47228;46.762;23.598;2023-02-28T10:38:37;98197.84;;;4.25;75.39
61359;BME280;47228;46.762;23.598;2023-02-28T10:41:08;98193.37;;;4.20;75.84
61359;BME280;47228;46.762;23.598;2023-02-28T10:43:38;98188.89;;;4.19;76.00
61359;BME280;47228;46.762;23.598;2023-02-28T10:48:44;98184.77;;;4.22;76.25
61359;BME280;47228;46.762;23.598;2023-02-28T10:51:14;98189.42;;;4.19;76.02
61359;BME280;47228;46.762;23.598;2023-02-28T10:56:28;98189.91;;;4.18;76.26
61359;BME280;47228;46.762;23.598;2023-02-28T11:03:58;98184.30;;;4.35;76.53
61359;BME280;47228;46.762;23.598;2023-02-28T11:06:30;98182.50;;;4.45;76.49
61359;BME280;47228;46.762;23.598;2023-02-28T11:09:02;98183.14;;;4.55;76.04
61359;BME280;47228;46.762;23.598;2023-02-28T11:11:42;98176.91;;;4.57;75.11
61359;BME280;47228;46.762;23.598;2023-02-28T11:14:23;98176.13;;;4.53;74.99
61359;BME280;47228;46.762;23.598;2023-02-28T11:16:52;98174.58;;;4.55;75.76
61359;BME280;47228;46.762;23.598;2023-02-28T11:19:24;98167.36;;;4.61;76.03
61359;BME280;47228;46.762;23.598;2023-02-28T11:21:56;98166.93;;;4.69;76.16
61359;BME280;47228;46.762;23.598;2023-02-28T11:24:29;98163.96;;;4.74;75.70
61359;BME280;47228;46.762;23.598;2023-02-28T11:26:58;98163.58;;;4.77;75.62
61359;BME280;47228;46.762;23.598;2023-02-28T11:29:32;98162.21;;;4.78;75.34
61359;BME280;47228;46.762;23.598;2023-02-28T11:32:20;98161.73;;;4.80;75.17
61359;BME280;47228;46.762;23.598;2023-02-28T11:37:38;98164.69;;;4.86;75.21
61359;BME280;47228;46.762;23.598;2023-02-28T11:40:17;98163.59;;;4.84;75.09
61359;BME280;47228;46.762;23.598;2023-02-28T11:42:53;98161.39;;;4.85;75.28
61359;BME280;47228;46.762;23.598;2023-02-28T11:55:49;98159.98;;;4.89;74.28
61359;BME280;47228;46.762;23.598;2023-02-28T11:58:29;98157.04;;;4.87;74.28
61359;BME280;47228;46.762;23.598;2023-02-28T12:06:32;98160.09;;;4.75;74.42
61359;BME280;47228;46.762;23.598;2023-02-28T12:12:35;98157.23;;;4.70;73.95
61359;BME280;47228;46.762;23.598;2023-02-28T12:15:27;98151.91;;;4.63;74.35
61359;BME280;47228;46.762;23.598;2023-02-28T12:21:26;98150.17;;;4.65;74.34
61359;BME280;47228;46.762;23.598;2023-02-28T12:26:39;98148.60;;;4.61;74.19
61359;BME280;47228;46.762;23.598;2023-02-28T12:32:20;98149.59;;;4.61;74.62
61359;BME280;47228;46.762;23.598;2023-02-28T12:34:53;98152.02;;;4.60;74.70
61359;BME280;47228;46.762;23.598;2023-02-28T12:40:22;98147.64;;;4.60;75.53
61359;BME280;47228;46.762;23.598;2023-02-28T12:42:57;98143.45;;;4.63;75.56
61359;BME280;47228;46.762;23.598;2023-02-28T12:48:13;98139.59;;;4.73;74.43
61359;BME280;47228;46.762;23.598;2023-02-28T12:50:42;98139.60;;;4.72;74.33
61359;BME280;47228;46.762;23.598;2023-02-28T12:53:23;98133.65;;;4.67;74.04
61359;BME280;47228;46.762;23.598;2023-02-28T12:58:47;98129.86;;;4.72;75.40
61359;BME280;47228;46.762;23.598;2023-02-28T13:07:15;98137.59;;;4.90;74.98
61359;BME280;47228;46.762;23.598;2023-02-28T13:09:59;98134.39;;;4.95;75.06
61359;BME280;47228;46.762;23.598;2023-02-28T13:12:29;98134.14;;;5.02;75.52
61359;BME280;47228;46.762;23.598;2023-02-28T13:17:40;98133.73;;;5.11;74.68
61359;BME280;47228;46.762;23.598;2023-02-28T13:20:21;98131.61;;;5.07;74.37
61359;BME280;47228;46.762;23.598;2023-02-28T13:22:51;98131.90;;;5.06;74.49
61359;BME280;47228;46.762;23.598;2023-02-28T13:27:54;98145.39;;;5.04;74.47
61359;BME280;47228;46.762;23.598;2023-02-28T13:33:31;98137.14;;;4.84;73.79
61359;BME280;47228;46.762;23.598;2023-02-28T13:46:29;98136.19;;;4.62;74.48
61359;BME280;47228;46.762;23.598;2023-02-28T13:51:55;98133.73;;;4.55;74.90
61359;BME280;47228;46.762;23.598;2023-02-28T13:57:14;98132.68;;;4.53;75.54
61359;BME280;47228;46.762;23.598;2023-02-28T14:05:12;98130.98;;;4.43;75.63
61359;BME280;47228;46.762;23.598;2023-02-28T14:07:49;98130.89;;;4.44;75.84
61359;BME280;47228;46.762;23.598;2023-02-28T14:10:32;98128.70;;;4.45;75.87
61359;BME280;47228;46.762;23.598;2023-02-28T14:16:05;98132.73;;;4.46;75.76
61359;BME280;47228;46.762;23.598;2023-02-28T14:18:36;98135.05;;;4.46;75.62
61359;BME280;47228;46.762;23.598;2023-02-28T14:26:49;98122.14;;;4.47;76.01
61359;BME280;47228;46.762;23.598;2023-02-28T14:29:35;98124.96;;;4.47;76.12
61359;BME280;47228;46.762;23.598;2023-02-28T14:32:25;98123.27;;;4.44;75.83
61359;BME280;47228;46.762;23.598;2023-02-28T14:35:29;98120.11;;;4.41;75.99
61359;BME280;47228;46.762;23.598;2023-02-28T14:38:05;98118.86;;;4.41;75.92
61359;BME280;47228;46.762;23.598;2023-02-28T14:40:35;98115.96;;;4.40;75.97
61359;BME280;47228;46.762;23.598;2023-02-28T14:43:05;98115.88;;;4.39;75.67
61359;BME280;47228;46.762;23.598;2023-02-28T14:45:35;98116.67;;;4.34;75.49
61359;BME280;47228;46.762;23.598;2023-02-28T14:48:09;98116.76;;;4.28;75.60
61359;BME280;47228;46.762;23.598;2023-02-28T14:50:37;98118.04;;;4.25;75.99
61359;BME280;47228;46.762;23.598;2023-02-28T14:53:12;98117.26;;;4.26;76.34
61359;BME280;47228;46.762;23.598;2023-02-28T14:55:45;98116.73;;;4.28;76.66
61359;BME280;47228;46.762;23.598;2023-02-28T14:58:29;98114.51;;;4.30;76.23
61359;BME280;47228;46.762;23.598;2023-02-28T15:00:59;98118.06;;;4.31;76.23
61359;BME280;47228;46.762;23.598;2023-02-28T15:03:39;98120.36;;;4.32;76.48
61359;BME280;47228;46.762;23.598;2023-02-28T15:06:17;98123.83;;;4.33;76.34
61359;BME280;47228;46.762;23.598;2023-02-28T15:08:46;98126.76;;;4.32;76.23
61359;BME280;47228;46.762;23.598;2023-02-28T15:11:18;98124.23;;;4.30;76.46
61359;BME280;47228;46.762;23.598;2023-02-28T15:13:50;98119.77;;;4.30;76.63
61359;BME280;47228;46.762;23.598;2023-02-28T15:16:22;98116.98;;;4.27;76.17
61359;BME280;47228;46.762;23.598;2023-02-28T15:19:12;98120.04;;;4.24;76.48
61359;BME280;47228;46.762;23.598;2023-02-28T15:21:45;98117.44;;;4.24;76.49
61359;BME280;47228;46.762;23.598;2023-02-28T15:24:30;98115.99;;;4.23;76.28
61359;BME280;47228;46.762;23.598;2023-02-28T15:27:04;98113.08;;;4.22;76.48
61359;BME280;47228;46.762;23.598;2023-02-28T15:29:42;98112.19;;;4.20;76.62
61359;BME280;47228;46.762;23.598;2023-02-28T15:32:43;98109.75;;;4.20;76.70
61359;BME280;47228;46.762;23.598;2023-02-28T15:35:28;98109.25;;;4.20;77.05
61359;BME280;47228;46.762;23.598;2023-02-28T15:38:01;98107.10;;;4.18;77.06
61359;BME280;47228;46.762;23.598;2023-02-28T15:40:41;98109.90;;;4.17;77.04
61359;BME280;47228;46.762;23.598;2023-02-28T15:43:23;98112.86;;;4.17;77.39
61359;BME280;47228;46.762;23.598;2023-02-28T15:46:11;98114.58;;;4.19;77.41